createdAt,value
2023-01-04T00:00:04.313Z,4.80
2023-01-04T00:02:33.436Z,5.03
2023-01-04T00:05:02.864Z,5.40
2023-01-04T00:07:31.936Z,4.87
2023-01-04T00:10:00.944Z,4.73
2023-01-04T00:12:29.419Z,4.73
2023-01-04T00:14:58.542Z,4.83
2023-01-04T00:17:28.555Z,4.20
2023-01-04T00:19:57.657Z,4.83
2023-01-04T00:22:26.320Z,5.03
2023-01-04T00:24:55.100Z,5.40
2023-01-04T00:27:23.488Z,5.03
2023-01-04T00:29:52.012Z,5.20
2023-01-04T00:32:20.865Z,4.77
2023-01-04T00:34:50.874Z,5.90
2023-01-04T00:37:19.413Z,6.67
2023-01-04T00:39:48.574Z,4.60
2023-01-04T00:42:17.069Z,5.57
2023-01-04T00:44:45.692Z,5.77
2023-01-04T00:47:14.918Z,5.93
2023-01-04T00:49:43.793Z,5.73
2023-01-04T00:52:13.649Z,6.00
2023-01-04T00:54:42.790Z,5.43
2023-01-04T00:57:11.489Z,5.53
2023-01-04T00:59:40.400Z,5.40
2023-01-04T01:02:09.316Z,5.77
2023-01-04T01:04:38.401Z,5.73
2023-01-04T01:07:06.876Z,6.07
2023-01-04T01:09:37.091Z,5.80
2023-01-04T01:12:05.987Z,6.30
2023-01-04T01:14:35.269Z,5.17
2023-01-04T01:17:04.532Z,5.53
2023-01-04T01:19:34.609Z,5.97
2023-01-04T01:22:03.222Z,5.43
2023-01-04T01:24:32.007Z,5.53
2023-01-04T01:27:01.835Z,6.30
2023-01-04T01:29:30.696Z,5.47
2023-01-04T01:31:59.891Z,5.50
2023-01-04T01:34:28.679Z,5.93
2023-01-04T01:36:57.144Z,5.57
2023-01-04T01:39:25.807Z,6.00
2023-01-04T01:41:54.143Z,6.00
2023-01-04T01:44:56.185Z,5.70
2023-01-04T01:47:27.767Z,5.60
2023-01-04T01:49:56.923Z,5.23
2023-01-04T01:52:31.287Z,5.80
2023-01-04T01:55:03.755Z,5.63
2023-01-04T01:57:35.163Z,5.00
2023-01-04T02:00:09.376Z,5.30
2023-01-04T02:02:37.925Z,5.93
2023-01-04T02:05:07.401Z,6.23
2023-01-04T02:07:37.684Z,6.00
2023-01-04T02:10:07.815Z,6.20
2023-01-04T02:12:36.380Z,5.43
2023-01-04T02:15:07.698Z,6.27
2023-01-04T02:17:42.023Z,6.27
2023-01-04T02:20:33.273Z,6.33
2023-01-04T02:23:35.228Z,6.43
2023-01-04T02:26:45.839Z,5.30
2023-01-04T02:29:38.973Z,5.73
2023-01-04T02:32:33.988Z,5.47
2023-01-04T02:35:11.178Z,5.67
2023-01-04T02:37:45.383Z,5.27
2023-01-04T02:40:21.952Z,5.03
2023-01-04T02:43:31.893Z,5.30
2023-01-04T02:46:05.742Z,5.63
2023-01-04T02:48:58.863Z,4.90
2023-01-04T02:51:31.076Z,5.60
2023-01-04T02:54:01.820Z,5.20
2023-01-04T02:56:42.896Z,5.60
2023-01-04T02:59:29.364Z,4.80
2023-01-04T03:02:28.654Z,5.47
2023-01-04T03:05:24.673Z,5.93
2023-01-04T03:07:57.523Z,5.57
2023-01-04T03:10:36.867Z,4.80
2023-01-04T03:13:11.582Z,6.23
2023-01-04T03:15:42.388Z,5.53
2023-01-04T03:18:22.378Z,6.10
2023-01-04T03:20:55.571Z,5.40
2023-01-04T03:23:46.349Z,5.23
2023-01-04T03:26:36.184Z,5.00
2023-01-04T03:29:28.606Z,5.67
2023-01-04T03:32:19.737Z,6.10
2023-01-04T03:35:06.327Z,5.13
2023-01-04T03:37:45.279Z,5.23
2023-01-04T03:40:43.643Z,6.27
2023-01-04T03:43:35.903Z,6.03
2023-01-04T03:46:26.841Z,6.07
2023-01-04T03:49:00.285Z,6.00
2023-01-04T03:51:32.254Z,5.33
2023-01-04T03:54:07.356Z,5.70
2023-01-04T03:56:38.885Z,5.20
2023-01-04T03:59:07.769Z,6.10
2023-01-04T04:01:37.706Z,5.80
2023-01-04T04:04:23.965Z,6.20
2023-01-04T04:07:10.095Z,5.60
2023-01-04T04:09:40.301Z,6.50
2023-01-04T04:12:08.976Z,6.13
2023-01-04T04:14:37.967Z,5.37
2023-01-04T04:17:06.564Z,6.10
2023-01-04T04:19:35.172Z,5.07
2023-01-04T04:22:03.938Z,6.00
2023-01-04T04:24:33.051Z,6.77
2023-01-04T04:27:02.737Z,4.80
2023-01-04T04:29:31.566Z,6.00
2023-01-04T04:32:00.050Z,6.33
2023-01-04T04:34:28.870Z,6.17
2023-01-04T04:36:57.847Z,5.83
2023-01-04T04:39:26.989Z,6.23
2023-01-04T04:41:54.452Z,6.63
2023-01-04T04:44:25.040Z,5.80
2023-01-04T04:46:53.436Z,5.37
2023-01-04T04:49:22.164Z,6.30
2023-01-04T04:51:50.734Z,5.90
2023-01-04T04:54:21.300Z,5.60
2023-01-04T04:56:50.366Z,5.90
2023-01-04T04:59:19.775Z,5.77
2023-01-04T05:01:49.693Z,6.63
2023-01-04T05:04:19.825Z,7.37
2023-01-04T05:06:50.837Z,5.63
2023-01-04T05:09:20.325Z,7.27
2023-01-04T05:12:05.957Z,7.63
2023-01-04T05:14:34.666Z,7.43
2023-01-04T05:17:04.658Z,8.23
2023-01-04T05:19:33.565Z,8.40
2023-01-04T05:22:02.066Z,7.13
2023-01-04T05:24:31.010Z,6.90
2023-01-04T05:26:59.546Z,8.30
2023-01-04T05:30:00.411Z,7.13
2023-01-04T05:32:30.306Z,8.80
2023-01-04T05:34:58.871Z,8.50
2023-01-04T05:37:27.346Z,8.23
2023-01-04T05:39:56.226Z,9.60
2023-01-04T05:42:28.321Z,10.30
2023-01-04T05:44:58.664Z,9.47
2023-01-04T05:47:27.539Z,11.00
2023-01-04T05:49:57.637Z,11.20
2023-01-04T05:52:26.640Z,12.53
2023-01-04T05:54:55.676Z,11.73
2023-01-04T05:57:24.503Z,10.83
2023-01-04T05:59:53.186Z,12.23
2023-01-04T06:02:24.275Z,11.30
2023-01-04T06:04:58.790Z,12.00
2023-01-04T06:07:30.089Z,11.50
2023-01-04T06:09:59.111Z,12.07
2023-01-04T06:12:28.002Z,11.47
2023-01-04T06:14:56.699Z,11.83
2023-01-04T06:17:25.303Z,11.50
2023-01-04T06:19:54.141Z,10.57
2023-01-04T06:22:22.730Z,11.57
2023-01-04T06:24:52.823Z,10.97
2023-01-04T06:27:21.337Z,13.70
2023-01-04T06:29:50.277Z,12.90
2023-01-04T06:32:19.130Z,13.03
2023-01-04T06:34:48.351Z,13.93
2023-01-04T06:37:16.921Z,11.87
2023-01-04T06:39:45.580Z,11.43
2023-01-04T06:42:29.216Z,11.67
2023-01-04T06:44:58.147Z,12.07
2023-01-04T06:47:27.546Z,10.83
2023-01-04T06:49:56.494Z,11.63
2023-01-04T06:52:25.425Z,12.90
2023-01-04T06:54:54.498Z,12.17
2023-01-04T06:57:24.742Z,11.57
2023-01-04T06:59:53.752Z,12.43
2023-01-04T07:02:23.781Z,11.93
2023-01-04T07:04:52.903Z,11.77
2023-01-04T07:07:22.087Z,12.10
2023-01-04T07:09:51.346Z,11.17
2023-01-04T07:12:20.217Z,12.63
2023-01-04T07:14:51.516Z,11.20
2023-01-04T07:17:26.416Z,11.80
2023-01-04T07:19:58.790Z,12.33
2023-01-04T07:22:27.241Z,12.13
2023-01-04T07:24:56.436Z,13.10
2023-01-04T07:27:25.425Z,11.57
2023-01-04T07:29:55.895Z,12.37
2023-01-04T07:32:25.095Z,13.27
2023-01-04T07:34:53.771Z,12.20
2023-01-04T07:37:22.455Z,12.77
2023-01-04T07:39:51.799Z,13.03
2023-01-04T07:42:22.054Z,12.23
2023-01-04T07:44:50.880Z,12.67
2023-01-04T07:47:21.786Z,11.77
2023-01-04T07:49:51.300Z,12.87
2023-01-04T07:52:19.929Z,11.33
2023-01-04T07:54:49.077Z,13.33
2023-01-04T07:57:17.876Z,14.83
2023-01-04T07:59:46.696Z,12.50
2023-01-04T08:02:15.616Z,12.37
2023-01-04T08:04:46.410Z,13.77
2023-01-04T08:07:15.371Z,13.37
2023-01-04T08:09:44.389Z,12.90
2023-01-04T08:12:12.982Z,13.23
2023-01-04T08:14:41.933Z,12.27
2023-01-04T08:17:14.577Z,13.37
2023-01-04T08:19:43.712Z,12.87
2023-01-04T08:22:15.034Z,12.90
2023-01-04T08:24:44.819Z,12.20
2023-01-04T08:27:13.616Z,12.97
2023-01-04T08:29:43.464Z,13.50
2023-01-04T08:32:12.049Z,14.83
2023-01-04T08:34:40.770Z,12.77
2023-01-04T08:37:09.353Z,12.73
2023-01-04T08:39:44.049Z,13.00
2023-01-04T08:42:22.510Z,14.53
2023-01-04T08:45:01.597Z,14.23
2023-01-04T08:47:31.351Z,12.43
2023-01-04T08:50:06.466Z,12.37
2023-01-04T08:52:38.339Z,12.37
2023-01-04T08:55:13.182Z,12.10
2023-01-04T08:57:43.931Z,12.60
2023-01-04T09:00:14.756Z,11.53
2023-01-04T09:02:43.629Z,12.13
2023-01-04T09:05:22.306Z,11.83
2023-01-04T09:07:51.606Z,12.47
2023-01-04T09:10:21.895Z,11.10
2023-01-04T09:12:50.629Z,11.70
2023-01-04T09:15:19.629Z,11.53
2023-01-04T09:18:20.711Z,12.77
2023-01-04T09:20:39.540Z,11.23
2023-01-04T09:23:07.891Z,11.57
2023-01-04T09:25:40.886Z,11.53
2023-01-04T09:28:09.217Z,9.97
2023-01-04T09:30:39.511Z,10.63
2023-01-04T09:33:08.097Z,12.27
2023-01-04T09:35:36.663Z,10.97
2023-01-04T09:38:04.990Z,11.50
2023-01-04T09:40:44.325Z,10.77
2023-01-04T09:43:21.020Z,10.60
2023-01-04T09:45:55.138Z,9.97
2023-01-04T09:48:27.967Z,10.47
2023-01-04T09:51:00.999Z,9.57
2023-01-04T09:53:35.147Z,9.10
2023-01-04T09:56:11.529Z,10.80
2023-01-04T09:58:43.495Z,10.10
2023-01-04T10:01:16.275Z,10.27
2023-01-04T10:03:51.341Z,9.20
2023-01-04T10:06:20.311Z,9.70
2023-01-04T10:08:48.855Z,7.73
2023-01-04T10:11:47.377Z,10.10
2023-01-04T10:14:41.971Z,9.03
2023-01-04T10:17:37.280Z,8.57
2023-01-04T10:23:33.665Z,10.03
2023-01-04T10:26:11.559Z,9.40
2023-01-04T10:29:04.016Z,9.63
2023-01-04T10:31:41.811Z,8.83
2023-01-04T10:34:22.891Z,8.17
2023-01-04T10:36:55.161Z,8.37
2023-01-04T10:39:32.280Z,9.27
2023-01-04T10:42:08.189Z,8.97
2023-01-04T10:44:46.219Z,9.00
2023-01-04T10:47:20.073Z,8.40
2023-01-04T10:49:53.897Z,8.37
2023-01-04T10:52:26.074Z,8.67
2023-01-04T10:54:59.895Z,8.37
2023-01-04T10:57:35.412Z,8.10
2023-01-04T11:00:08.320Z,7.83
2023-01-04T11:02:44.716Z,8.63
2023-01-04T11:05:22.019Z,9.07
2023-01-04T11:07:55.284Z,8.33
2023-01-04T11:10:29.063Z,7.70
2023-01-04T11:12:57.408Z,8.93
2023-01-04T11:15:27.756Z,8.37
2023-01-04T11:17:57.169Z,8.30
2023-01-04T11:20:27.241Z,6.83
2023-01-04T11:23:01.945Z,8.17
2023-01-04T11:25:37.338Z,7.50
2023-01-04T11:28:15.982Z,6.17
2023-01-04T11:30:55.691Z,7.23
2023-01-04T11:33:25.824Z,8.03
2023-01-04T11:35:59.163Z,7.20
2023-01-04T11:38:29.677Z,7.33
2023-01-04T11:41:01.041Z,7.67
2023-01-04T11:43:30.954Z,7.73
2023-01-04T11:46:03.944Z,8.17
2023-01-04T11:48:35.619Z,7.07
2023-01-04T11:51:05.943Z,6.73
2023-01-04T11:53:36.357Z,6.70
2023-01-04T11:56:17.447Z,6.90
2023-01-04T11:59:03.220Z,6.33
2023-01-04T12:01:34.986Z,7.20
2023-01-04T12:04:05.607Z,7.43
2023-01-04T12:06:40.517Z,7.00
2023-01-04T12:09:14.783Z,5.70
2023-01-04T12:11:47.026Z,7.40
2023-01-04T12:14:22.089Z,7.40
2023-01-04T12:16:57.946Z,5.83
2023-01-04T12:19:28.141Z,6.47
2023-01-04T12:21:59.717Z,5.53
2023-01-04T12:24:31.481Z,6.90
2023-01-04T12:27:01.656Z,5.67
2023-01-04T12:29:44.481Z,5.83
2023-01-04T12:32:43.613Z,5.77
2023-01-04T12:36:00.686Z,5.43
2023-01-04T12:39:05.498Z,5.03
2023-01-04T12:42:19.730Z,6.37
2023-01-04T12:45:14.123Z,5.47
2023-01-04T12:48:06.209Z,6.43
2023-01-04T12:51:42.730Z,5.23
2023-01-04T12:54:32.226Z,5.23
2023-01-04T12:57:24.765Z,5.90
2023-01-04T12:59:57.732Z,6.07
2023-01-04T13:02:29.203Z,5.80
2023-01-04T13:05:53.688Z,5.23
2023-01-04T13:07:52.175Z,5.50
2023-01-04T13:10:33.063Z,5.83
2023-01-04T13:13:25.064Z,6.70
2023-01-04T13:16:08.454Z,5.33
2023-01-04T13:18:41.664Z,5.63
2023-01-04T13:21:16.798Z,6.37
2023-01-04T13:23:51.167Z,6.17
2023-01-04T13:26:39.212Z,6.40
2023-01-04T13:29:16.129Z,6.87
2023-01-04T13:31:56.328Z,7.00
2023-01-04T13:34:28.991Z,7.27
2023-01-04T13:37:08.676Z,6.23
2023-01-04T13:39:39.248Z,6.77
2023-01-04T13:42:18.110Z,6.53
2023-01-04T13:45:19.741Z,6.17
2023-01-04T13:47:52.257Z,7.23
2023-01-04T13:50:35.971Z,7.10
2023-01-04T13:53:08.865Z,6.33
2023-01-04T13:55:39.675Z,7.27
2023-01-04T13:58:19.217Z,6.37
2023-01-04T14:00:52.429Z,6.30
2023-01-04T14:03:31.554Z,6.37
2023-01-04T14:06:15.623Z,5.80
2023-01-04T14:08:49.255Z,6.33
2023-01-04T14:11:35.599Z,5.87
2023-01-04T14:14:07.964Z,5.33
2023-01-04T14:16:37.079Z,6.07
2023-01-04T14:19:39.000Z,6.70
2023-01-04T14:22:26.344Z,5.40
2023-01-04T14:25:14.815Z,5.63
2023-01-04T14:27:44.231Z,5.50
2023-01-04T14:30:25.245Z,5.30
2023-01-04T14:32:56.618Z,5.87
2023-01-04T14:35:25.620Z,5.33
2023-01-04T14:37:54.676Z,7.10
2023-01-04T14:40:27.246Z,5.53
2023-01-04T14:42:56.795Z,6.40
2023-01-04T14:45:26.926Z,7.10
2023-01-04T14:47:55.929Z,8.20
2023-01-04T14:50:25.149Z,6.47
2023-01-04T14:52:55.046Z,6.20
2023-01-04T14:55:24.858Z,5.53
2023-01-04T14:57:53.942Z,6.00
2023-01-04T15:00:22.289Z,6.27
2023-01-04T15:02:52.792Z,6.57
2023-01-04T15:05:22.759Z,6.77
2023-01-04T15:07:51.898Z,6.47
2023-01-04T15:10:23.427Z,5.70
2023-01-04T15:12:52.238Z,5.50
2023-01-04T15:15:21.399Z,5.23
2023-01-04T15:17:50.368Z,4.87
2023-01-04T15:20:20.519Z,4.83
2023-01-04T15:22:49.336Z,4.87
2023-01-04T15:25:18.057Z,4.07
2023-01-04T15:27:46.862Z,5.33
2023-01-04T15:30:15.995Z,4.53
2023-01-04T15:32:44.885Z,5.27
2023-01-04T15:35:16.324Z,4.73
2023-01-04T15:37:47.492Z,4.10
2023-01-04T15:40:18.767Z,4.53
2023-01-04T15:43:02.645Z,4.63
2023-01-04T15:45:35.822Z,5.00
2023-01-04T15:48:05.257Z,5.73
2023-01-04T15:50:37.187Z,4.77
2023-01-04T15:53:08.726Z,5.20
2023-01-04T15:55:38.483Z,5.30
2023-01-04T15:58:07.171Z,5.87
2023-01-04T16:00:38.046Z,4.87
2023-01-04T16:03:07.381Z,5.50
2023-01-04T16:05:36.972Z,4.53
2023-01-04T16:08:07.038Z,5.70
2023-01-04T16:10:35.588Z,5.27
2023-01-04T16:13:04.115Z,5.10
2023-01-04T16:15:32.530Z,5.83
2023-01-04T16:18:01.165Z,3.93
2023-01-04T16:20:29.742Z,4.53
2023-01-04T16:22:58.388Z,4.80
2023-01-04T16:25:28.299Z,4.93
2023-01-04T16:27:57.198Z,4.23
2023-01-04T16:30:29.838Z,5.80
2023-01-04T16:32:58.962Z,5.90
2023-01-04T16:35:27.957Z,6.07
2023-01-04T16:37:56.779Z,5.00
2023-01-04T16:40:26.974Z,5.60
2023-01-04T16:42:55.649Z,5.33
2023-01-04T16:45:24.104Z,5.90
2023-01-04T16:47:53.842Z,4.93
2023-01-04T16:50:22.343Z,4.40
2023-01-04T16:52:51.056Z,3.57
2023-01-04T16:55:24.018Z,5.30
2023-01-04T16:57:54.775Z,3.72
2023-01-04T17:00:24.032Z,4.40
2023-01-04T17:02:52.711Z,4.30
2023-01-04T17:05:21.251Z,4.75
2023-01-04T17:07:49.995Z,4.33
2023-01-04T17:10:20.647Z,3.97
2023-01-04T17:12:54.405Z,4.10
2023-01-04T17:15:42.316Z,3.60
2023-01-04T17:18:12.746Z,3.90
2023-01-04T17:20:41.893Z,3.45
2023-01-04T17:23:10.899Z,3.78
2023-01-04T17:25:39.357Z,3.88
2023-01-04T17:28:10.324Z,3.70
2023-01-04T17:30:39.601Z,3.15
2023-01-04T17:33:08.340Z,2.95
2023-01-04T17:35:38.120Z,3.28
2023-01-04T17:38:07.603Z,3.10
2023-01-04T17:40:36.562Z,3.60
2023-01-04T17:43:08.158Z,3.10
2023-01-04T17:45:38.147Z,3.30
2023-01-04T17:48:08.227Z,2.80
2023-01-04T17:50:37.078Z,3.40
2023-01-04T17:53:06.087Z,2.78
2023-01-04T17:55:36.630Z,2.65
2023-01-04T17:58:09.715Z,3.28
2023-01-04T18:00:50.144Z,2.63
2023-01-04T18:03:18.734Z,2.30
2023-01-04T18:05:59.109Z,2.20
2023-01-04T18:08:28.386Z,2.85
2023-01-04T18:11:07.408Z,2.45
2023-01-04T18:13:38.307Z,2.10
2023-01-04T18:16:29.062Z,2.05
2023-01-04T18:18:59.689Z,2.90
2023-01-04T18:21:30.630Z,2.90
2023-01-04T18:24:34.760Z,2.30
2023-01-04T18:29:39.406Z,2.92
2023-01-04T18:32:09.204Z,2.95
2023-01-04T18:34:37.996Z,3.30
2023-01-04T18:37:06.345Z,3.50
2023-01-04T18:39:35.000Z,2.45
2023-01-04T18:42:03.281Z,2.67
2023-01-04T18:44:34.047Z,2.17
2023-01-04T18:47:04.170Z,3.13
2023-01-04T18:49:34.192Z,2.67
2023-01-04T18:52:02.461Z,2.78
2023-01-04T18:54:31.071Z,2.05
2023-01-04T18:57:01.203Z,3.10
2023-01-04T18:59:30.560Z,2.97
2023-01-04T19:02:01.996Z,2.63
2023-01-04T19:04:34.000Z,2.65
2023-01-04T19:07:02.781Z,2.90
2023-01-04T19:09:31.529Z,3.17
2023-01-04T19:11:59.947Z,2.67
2023-01-04T19:14:28.547Z,2.40
2023-01-04T19:16:56.900Z,2.40
2023-01-04T19:19:25.652Z,2.72
2023-01-04T19:21:55.333Z,2.70
2023-01-04T19:24:24.097Z,3.00
2023-01-04T19:26:52.533Z,3.00
2023-01-04T19:29:21.078Z,3.13
2023-01-04T19:31:49.570Z,2.95
2023-01-04T19:34:18.143Z,2.65
2023-01-04T19:36:46.447Z,3.58
2023-01-04T19:39:16.455Z,3.30
2023-01-04T19:41:44.737Z,3.47
2023-01-04T19:44:14.322Z,3.10
2023-01-04T19:46:42.697Z,3.17
2023-01-04T19:49:15.113Z,3.08
2023-01-04T19:51:45.509Z,2.88
2023-01-04T19:54:23.017Z,3.47
2023-01-04T19:56:53.511Z,3.40
2023-01-04T19:59:22.318Z,3.53
2023-01-04T20:01:50.742Z,3.40
2023-01-04T20:04:19.659Z,3.83
2023-01-04T20:06:47.971Z,4.10
2023-01-04T20:09:24.546Z,4.22
2023-01-04T20:11:53.951Z,3.30
2023-01-04T20:14:22.854Z,4.05
2023-01-04T20:16:51.218Z,4.20
2023-01-04T20:19:19.851Z,3.22
2023-01-04T20:21:48.044Z,3.20
2023-01-04T20:24:17.976Z,4.18
2023-01-04T20:26:46.595Z,4.13
2023-01-04T20:29:15.295Z,3.95
2023-01-04T20:31:45.762Z,3.15
2023-01-04T20:34:14.668Z,3.78
2023-01-04T20:36:43.046Z,3.95
2023-01-04T20:39:12.208Z,3.70
2023-01-04T20:42:03.514Z,4.63
2023-01-04T20:44:31.042Z,3.75
2023-01-04T20:46:59.287Z,3.83
2023-01-04T20:49:27.850Z,3.63
2023-01-04T20:51:56.192Z,3.65
2023-01-04T20:54:24.747Z,3.57
2023-01-04T20:56:54.876Z,3.35
2023-01-04T20:59:23.456Z,4.10
2023-01-04T21:01:51.846Z,3.25
2023-01-04T21:04:20.432Z,3.47
2023-01-04T21:06:48.790Z,3.60
2023-01-04T21:09:17.396Z,3.53
2023-01-04T21:11:45.789Z,3.65
2023-01-04T21:14:15.778Z,3.42
2023-01-04T21:16:44.005Z,2.85
2023-01-04T21:19:12.931Z,3.60
2023-01-04T21:21:41.969Z,2.88
2023-01-04T21:24:10.656Z,3.60
2023-01-04T21:26:39.397Z,4.15
2023-01-04T21:29:07.997Z,3.40
2023-01-04T21:31:37.901Z,3.45
2023-01-04T21:34:12.415Z,3.22
2023-01-04T21:36:41.998Z,2.72
2023-01-04T21:39:10.744Z,3.88
2023-01-04T21:41:44.310Z,3.13
2023-01-04T21:44:16.302Z,2.90
2023-01-04T21:46:46.219Z,3.22
2023-01-04T21:49:14.781Z,3.17
2023-01-04T21:51:43.260Z,3.28
2023-01-04T21:54:12.006Z,3.28
2023-01-04T21:56:40.401Z,3.22
2023-01-04T21:59:08.955Z,2.97
2023-01-04T22:01:37.329Z,3.03
2023-01-04T22:04:07.539Z,3.22
2023-01-04T22:06:38.753Z,3.10
2023-01-04T22:09:07.401Z,3.20
2023-01-04T22:11:35.707Z,3.35
2023-01-04T22:14:04.945Z,3.38
2023-01-04T22:16:33.240Z,2.85
2023-01-04T22:19:01.937Z,3.55
2023-01-04T22:21:31.588Z,2.83
2023-01-04T22:24:00.423Z,3.28
2023-01-04T22:26:30.268Z,2.70
2023-01-04T22:28:59.188Z,2.70
2023-01-04T22:31:27.568Z,2.70
2023-01-04T22:33:56.505Z,2.97
2023-01-04T22:36:25.014Z,2.97
2023-01-04T22:38:57.036Z,2.80
2023-01-04T22:41:27.404Z,3.70
2023-01-04T22:43:57.639Z,2.90
2023-01-04T22:46:27.123Z,2.97
2023-01-04T22:48:56.085Z,2.85
2023-01-04T22:51:27.510Z,2.58
2023-01-04T22:53:59.463Z,3.10
2023-01-04T22:56:28.475Z,2.17
2023-01-04T22:58:58.299Z,2.47
2023-01-04T23:01:28.516Z,2.45
2023-01-04T23:03:58.731Z,2.00
2023-01-04T23:06:29.127Z,2.00
2023-01-04T23:09:01.594Z,2.00
2023-01-04T23:11:31.412Z,1.92
2023-01-04T23:14:00.178Z,1.70
2023-01-04T23:16:32.663Z,1.73
2023-01-04T23:19:02.087Z,2.00
2023-01-04T23:21:31.014Z,1.33
2023-01-04T23:24:01.553Z,1.40
2023-01-04T23:26:31.721Z,1.50
2023-01-04T23:29:00.705Z,1.90
2023-01-04T23:31:30.927Z,1.30
2023-01-04T23:34:01.451Z,1.13
2023-01-04T23:36:31.699Z,1.65
2023-01-04T23:39:03.387Z,1.35
2023-01-04T23:41:47.771Z,1.10
2023-01-04T23:44:19.447Z,1.00
2023-01-04T23:46:51.369Z,1.42
2023-01-04T23:49:20.159Z,1.33
2023-01-04T23:51:48.475Z,1.10
2023-01-04T23:54:18.401Z,0.95
2023-01-04T23:56:46.778Z,1.15
2023-01-04T23:59:15.932Z,1.27
